sensor_id;sensor_type;location;lat;lon;timestamp;pressure;altitude;pressure_sealevel;temperature;humidity
59104;BME280;51449;51.676;5.812;2022-12-07T06:31:51;101666.19;;;3.90;86.12
59104;BME280;51449;51.676;5.812;2022-12-07T07:28:26;101685.44;;;3.63;85.08
59104;BME280;51449;51.676;5.812;2022-12-07T07:30:59;101690.06;;;3.62;85.12
59104;BME280;51449;51.676;5.812;2022-12-07T12:03:45;101571.81;;;7.42;75.92
59104;BME280;51449;51.676;5.812;2022-12-07T12:06:14;101576.25;;;7.38;75.35
59104;BME280;51449;51.676;5.812;2022-12-07T12:08:41;101574.63;;;7.37;75.67
59104;BME280;51449;51.676;5.812;2022-12-07T12:38:30;101562.88;;;7.12;77.24
59104;BME280;51449;51.676;5.812;2022-12-07T14:17:33;101458.16;;;7.15;73.29
59104;BME280;51449;51.676;5.812;2022-12-07T14:20:02;101459.56;;;7.13;73.06
59104;BME280;51449;51.676;5.812;2022-12-07T14:40:24;101453.94;;;6.80;73.14
59104;BME280;51449;51.676;5.812;2022-12-07T14:42:51;101448.53;;;6.75;74.11
59104;BME280;51449;51.676;5.812;2022-12-07T14:45:21;101453.78;;;6.71;74.41
59104;BME280;51449;51.676;5.812;2022-12-07T14:47:45;101451.06;;;6.71;74.14
59104;BME280;51449;51.676;5.812;2022-12-07T14:50:28;101460.06;;;6.72;74.57
59104;BME280;51449;51.676;5.812;2022-12-07T14:52:55;101456.81;;;6.70;75.41
59104;BME280;51449;51.676;5.812;2022-12-07T15:28:09;101439.34;;;5.83;76.97
59104;BME280;51449;51.676;5.812;2022-12-07T16:20:07;101404.09;;;5.03;79.61
59104;BME280;51449;51.676;5.812;2022-12-07T16:29:23;101391.00;;;5.00;79.88
59104;BME280;51449;51.676;5.812;2022-12-07T16:31:46;101389.66;;;4.97;79.55
59104;BME280;51449;51.676;5.812;2022-12-07T16:34:09;101390.50;;;4.98;79.62
59104;BME280;51449;51.676;5.812;2022-12-07T16:43:23;101393.78;;;4.89;80.51
59104;BME280;51449;51.676;5.812;2022-12-07T16:54:48;101382.63;;;4.86;81.04
59104;BME280;51449;51.676;5.812;2022-12-07T17:02:39;101384.28;;;4.82;81.29
59104;BME280;51449;51.676;5.812;2022-12-07T17:05:01;101383.16;;;4.83;81.54
59104;BME280;51449;51.676;5.812;2022-12-07T17:07:24;101376.34;;;4.85;81.27
59104;BME280;51449;51.676;5.812;2022-12-07T17:12:41;101372.25;;;4.88;81.51
59104;BME280;51449;51.676;5.812;2022-12-07T17:15:05;101366.50;;;4.89;81.45
59104;BME280;51449;51.676;5.812;2022-12-07T17:17:44;101364.88;;;4.88;81.58
59104;BME280;51449;51.676;5.812;2022-12-07T17:20:10;101373.06;;;4.88;81.99
59104;BME280;51449;51.676;5.812;2022-12-07T17:22:56;101367.59;;;4.88;82.16
59104;BME280;51449;51.676;5.812;2022-12-07T17:25:21;101369.75;;;4.91;82.46
59104;BME280;51449;51.676;5.812;2022-12-07T17:27:44;101357.44;;;4.94;81.90
59104;BME280;51449;51.676;5.812;2022-12-07T17:30:08;101345.16;;;4.97;82.17
59104;BME280;51449;51.676;5.812;2022-12-07T17:32:31;101337.53;;;4.93;82.42
59104;BME280;51449;51.676;5.812;2022-12-07T17:34:54;101345.44;;;4.95;82.05
59104;BME280;51449;51.676;5.812;2022-12-07T17:37:16;101343.81;;;4.94;82.51
59104;BME280;51449;51.676;5.812;2022-12-07T17:39:38;101339.72;;;4.91;82.37
59104;BME280;51449;51.676;5.812;2022-12-07T17:42:01;101337.00;;;4.91;82.28
59104;BME280;51449;51.676;5.812;2022-12-07T17:44:50;101340.53;;;4.92;82.32
59104;BME280;51449;51.676;5.812;2022-12-07T17:47:12;101336.72;;;4.93;82.82
59104;BME280;51449;51.676;5.812;2022-12-07T17:49:36;101327.16;;;4.96;82.62
59104;BME280;51449;51.676;5.812;2022-12-07T17:51:58;101332.59;;;4.96;82.70
59104;BME280;51449;51.676;5.812;2022-12-07T17:54:39;101326.59;;;4.93;83.44
59104;BME280;51449;51.676;5.812;2022-12-07T17:57:01;101323.31;;;4.97;82.85
59104;BME280;51449;51.676;5.812;2022-12-07T17:59:29;101324.13;;;4.97;83.51
59104;BME280;51449;51.676;5.812;2022-12-07T18:01:52;101320.31;;;4.98;83.14
59104;BME280;51449;51.676;5.812;2022-12-07T18:04:14;101321.91;;;4.99;83.18
59104;BME280;51449;51.676;5.812;2022-12-07T18:06:37;101323.31;;;4.97;83.44
59104;BME280;51449;51.676;5.812;2022-12-07T18:08:59;101319.50;;;4.98;84.14
59104;BME280;51449;51.676;5.812;2022-12-07T18:11:22;101318.66;;;4.97;83.86
59104;BME280;51449;51.676;5.812;2022-12-07T18:13:44;101321.09;;;4.99;83.71
59104;BME280;51449;51.676;5.812;2022-12-07T18:16:12;101315.38;;;5.00;83.94
59104;BME280;51449;51.676;5.812;2022-12-07T18:18:39;101317.00;;;5.01;83.33
59104;BME280;51449;51.676;5.812;2022-12-07T18:21:16;101311.53;;;5.01;83.29
59104;BME280;51449;51.676;5.812;2022-12-07T18:23:45;101308.00;;;5.01;83.52
59104;BME280;51449;51.676;5.812;2022-12-07T18:26:09;101305.84;;;4.98;83.72
59104;BME280;51449;51.676;5.812;2022-12-07T18:28:34;101300.38;;;4.98;83.40
59104;BME280;51449;51.676;5.812;2022-12-07T18:30:56;101302.00;;;4.99;83.35
59104;BME280;51449;51.676;5.812;2022-12-07T18:33:38;101308.00;;;5.01;83.59
59104;BME280;51449;51.676;5.812;2022-12-07T18:36:02;101296.25;;;5.00;83.42
59104;BME280;51449;51.676;5.812;2022-12-07T18:38:26;101287.53;;;4.98;83.37
59104;BME280;51449;51.676;5.812;2022-12-07T18:40:49;101296.53;;;4.99;83.70
59104;BME280;51449;51.676;5.812;2022-12-07T18:43:11;101301.72;;;5.00;83.41
59104;BME280;51449;51.676;5.812;2022-12-07T18:45:36;101294.63;;;4.99;83.92
59104;BME280;51449;51.676;5.812;2022-12-07T18:47:59;101291.06;;;4.99;83.09
59104;BME280;51449;51.676;5.812;2022-12-07T18:50:21;101289.97;;;5.00;83.89
59104;BME280;51449;51.676;5.812;2022-12-07T18:52:43;101285.34;;;5.00;83.40
59104;BME280;51449;51.676;5.812;2022-12-07T18:55:05;101293.22;;;5.02;83.58
59104;BME280;51449;51.676;5.812;2022-12-07T18:57:31;101282.31;;;5.02;82.81
59104;BME280;51449;51.676;5.812;2022-12-07T18:59:54;101285.84;;;5.02;83.28
59104;BME280;51449;51.676;5.812;2022-12-07T19:02:16;101279.28;;;5.03;82.82
59104;BME280;51449;51.676;5.812;2022-12-07T19:04:39;101280.91;;;5.04;82.95
59104;BME280;51449;51.676;5.812;2022-12-07T19:07:02;101288.84;;;5.06;83.09
59104;BME280;51449;51.676;5.812;2022-12-07T19:09:24;101289.66;;;5.06;82.69
59104;BME280;51449;51.676;5.812;2022-12-07T19:11:48;101294.28;;;5.06;82.89
59104;BME280;51449;51.676;5.812;2022-12-07T19:14:11;101288.03;;;5.05;83.03
59104;BME280;51449;51.676;5.812;2022-12-07T19:16:34;101291.56;;;5.06;82.80
59104;BME280;51449;51.676;5.812;2022-12-07T19:18:57;101285.28;;;5.05;82.74
59104;BME280;51449;51.676;5.812;2022-12-07T19:21:19;101277.91;;;5.06;82.67
59104;BME280;51449;51.676;5.812;2022-12-07T19:23:41;101277.09;;;5.05;82.76
59104;BME280;51449;51.676;5.812;2022-12-07T19:26:03;101286.63;;;5.08;83.70
59104;BME280;51449;51.676;5.812;2022-12-07T19:28:26;101273.78;;;5.08;83.08
59104;BME280;51449;51.676;5.812;2022-12-07T19:30:48;101280.59;;;5.11;82.95
59104;BME280;51449;51.676;5.812;2022-12-07T19:33:10;101278.41;;;5.13;83.49
59104;BME280;51449;51.676;5.812;2022-12-07T19:35:32;101288.75;;;5.16;82.81
59104;BME280;51449;51.676;5.812;2022-12-07T19:37:54;101285.44;;;5.19;82.84
59104;BME280;51449;51.676;5.812;2022-12-07T19:40:16;101284.34;;;5.20;82.50
59104;BME280;51449;51.676;5.812;2022-12-07T19:42:38;101286.50;;;5.23;82.35
59104;BME280;51449;51.676;5.812;2022-12-07T19:45:01;101294.69;;;5.23;82.49
59104;BME280;51449;51.676;5.812;2022-12-07T19:47:24;101280.22;;;5.23;82.26
59104;BME280;51449;51.676;5.812;2022-12-07T19:49:46;101282.97;;;5.23;81.66
59104;BME280;51449;51.676;5.812;2022-12-07T19:52:10;101287.63;;;5.22;82.31
59104;BME280;51449;51.676;5.812;2022-12-07T19:54:35;101274.22;;;5.21;81.97
59104;BME280;51449;51.676;5.812;2022-12-07T19:56:58;101275.84;;;5.22;82.38
59104;BME280;51449;51.676;5.812;2022-12-07T19:59:23;101272.25;;;5.26;82.38
59104;BME280;51449;51.676;5.812;2022-12-07T20:01:47;101278.00;;;5.30;82.90
59104;BME280;51449;51.676;5.812;2022-12-07T20:04:13;101279.03;;;5.34;82.41
59104;BME280;51449;51.676;5.812;2022-12-07T20:06:38;101274.41;;;5.34;82.65
59104;BME280;51449;51.676;5.812;2022-12-07T20:09:01;101270.81;;;5.34;82.77
59104;BME280;51449;51.676;5.812;2022-12-07T20:15:29;101255.59;;;5.28;82.02
59104;BME280;51449;51.676;5.812;2022-12-07T20:17:51;101258.06;;;5.29;83.02
59104;BME280;51449;51.676;5.812;2022-12-07T20:20:13;101249.84;;;5.29;82.84
59104;BME280;51449;51.676;5.812;2022-12-07T20:22:35;101252.28;;;5.31;82.64
59104;BME280;51449;51.676;5.812;2022-12-07T20:24:57;101253.41;;;5.30;82.58
59104;BME280;51449;51.676;5.812;2022-12-07T20:32:11;101246.91;;;5.21;82.70
59104;BME280;51449;51.676;5.812;2022-12-07T20:38:15;101236.03;;;5.15;82.81
59104;BME280;51449;51.676;5.812;2022-12-07T20:41:43;101232.72;;;5.19;82.57
59104;BME280;51449;51.676;5.812;2022-12-07T20:45:32;101231.69;;;5.14;83.33
59104;BME280;51449;51.676;5.812;2022-12-07T20:47:54;101223.50;;;5.14;83.08
59104;BME280;51449;51.676;5.812;2022-12-07T21:07:42;101211.59;;;5.00;83.47
59104;BME280;51449;51.676;5.812;2022-12-07T21:10:05;101211.31;;;5.02;83.47
59104;BME280;51449;51.676;5.812;2022-12-07T21:17:37;101194.16;;;4.96;83.13
59104;BME280;51449;51.676;5.812;2022-12-07T21:19:59;101194.16;;;4.96;82.93
59104;BME280;51449;51.676;5.812;2022-12-07T21:22:23;101199.09;;;4.94;83.43
59104;BME280;51449;51.676;5.812;2022-12-07T21:24:58;101201.28;;;4.92;83.56
59104;BME280;51449;51.676;5.812;2022-12-07T21:27:41;101198.84;;;4.90;83.74
59104;BME280;51449;51.676;5.812;2022-12-07T21:30:05;101195.03;;;4.91;83.46
59104;BME280;51449;51.676;5.812;2022-12-07T21:32:47;101197.53;;;4.88;83.54
59104;BME280;51449;51.676;5.812;2022-12-07T21:35:10;101189.34;;;4.88;83.08
59104;BME280;51449;51.676;5.812;2022-12-07T21:37:32;101188.00;;;4.85;83.44
59104;BME280;51449;51.676;5.812;2022-12-07T21:39:54;101187.16;;;4.85;83.50
59104;BME280;51449;51.676;5.812;2022-12-07T21:42:16;101185.53;;;4.84;83.66
59104;BME280;51449;51.676;5.812;2022-12-07T21:44:38;101181.16;;;4.83;83.21
59104;BME280;51449;51.676;5.812;2022-12-07T21:47:00;101189.66;;;4.81;83.35
59104;BME280;51449;51.676;5.812;2022-12-07T21:49:22;101178.47;;;4.78;83.65
59104;BME280;51449;51.676;5.812;2022-12-07T21:51:44;101174.13;;;4.77;83.38
59104;BME280;51449;51.676;5.812;2022-12-07T21:54:07;101173.59;;;4.75;83.61
59104;BME280;51449;51.676;5.812;2022-12-07T21:56:34;101183.44;;;4.70;83.57
59104;BME280;51449;51.676;5.812;2022-12-07T21:59:13;101176.66;;;4.68;84.02
59104;BME280;51449;51.676;5.812;2022-12-07T22:01:39;101179.13;;;4.64;83.86
59104;BME280;51449;51.676;5.812;2022-12-07T22:04:07;101177.53;;;4.63;83.92
59104;BME280;51449;51.676;5.812;2022-12-07T22:06:33;101175.88;;;4.62;84.74
59104;BME280;51449;51.676;5.812;2022-12-07T22:08:57;101176.69;;;4.63;84.28
59104;BME280;51449;51.676;5.812;2022-12-07T22:11:21;101168.28;;;4.59;84.41
59104;BME280;51449;51.676;5.812;2022-12-07T22:13:54;101167.72;;;4.57;84.20
59104;BME280;51449;51.676;5.812;2022-12-07T22:16:56;101164.47;;;4.55;84.18
59104;BME280;51449;51.676;5.812;2022-12-07T22:19:20;101167.19;;;4.55;84.77
59104;BME280;51449;51.676;5.812;2022-12-07T22:21:45;101169.13;;;4.55;84.71
59104;BME280;51449;51.676;5.812;2022-12-07T22:24:18;101171.03;;;4.54;84.94
59104;BME280;51449;51.676;5.812;2022-12-07T22:27:01;101168.31;;;4.54;84.61
59104;BME280;51449;51.676;5.812;2022-12-07T22:29:31;101160.13;;;4.54;84.68
59104;BME280;51449;51.676;5.812;2022-12-07T22:32:05;101159.81;;;4.56;84.67
59104;BME280;51449;51.676;5.812;2022-12-07T22:35:09;101151.94;;;4.54;84.92
59104;BME280;51449;51.676;5.812;2022-12-07T22:37:31;101148.69;;;4.52;85.06
59104;BME280;51449;51.676;5.812;2022-12-07T22:39:54;101141.03;;;4.54;85.12
59104;BME280;51449;51.676;5.812;2022-12-07T22:42:16;101150.28;;;4.53;84.67
59104;BME280;51449;51.676;5.812;2022-12-07T22:49:30;101133.97;;;4.48;85.14
59104;BME280;51449;51.676;5.812;2022-12-07T22:52:11;101127.97;;;4.46;84.78
59104;BME280;51449;51.676;5.812;2022-12-07T22:54:43;101129.38;;;4.43;85.61
59104;BME280;51449;51.676;5.812;2022-12-07T22:57:29;101114.09;;;4.42;85.56
59104;BME280;51449;51.676;5.812;2022-12-07T23:00:30;101105.13;;;4.42;85.38
59104;BME280;51449;51.676;5.812;2022-12-07T23:03:13;101109.72;;;4.41;85.43
59104;BME280;51449;51.676;5.812;2022-12-07T23:05:48;101099.66;;;4.42;85.54
59104;BME280;51449;51.676;5.812;2022-12-07T23:08:11;101094.47;;;4.40;85.70
59104;BME280;51449;51.676;5.812;2022-12-07T23:10:34;101098.53;;;4.43;85.17
59104;BME280;51449;51.676;5.812;2022-12-07T23:12:56;101099.06;;;4.45;84.95
59104;BME280;51449;51.676;5.812;2022-12-07T23:15:37;101088.16;;;4.45;85.39
59104;BME280;51449;51.676;5.812;2022-12-07T23:17:59;101089.78;;;4.46;85.15
59104;BME280;51449;51.676;5.812;2022-12-07T23:20:21;101092.81;;;4.44;84.73
59104;BME280;51449;51.676;5.812;2022-12-07T23:22:44;101093.63;;;4.45;85.26
59104;BME280;51449;51.676;5.812;2022-12-07T23:25:06;101096.63;;;4.43;84.94
59104;BME280;51449;51.676;5.812;2022-12-07T23:27:28;101084.09;;;4.42;85.00
59104;BME280;51449;51.676;5.812;2022-12-07T23:29:50;101088.44;;;4.43;84.95
59104;BME280;51449;51.676;5.812;2022-12-07T23:32:12;101089.78;;;4.46;84.80
59104;BME280;51449;51.676;5.812;2022-12-07T23:34:34;101066.63;;;4.43;85.13
59104;BME280;51449;51.676;5.812;2022-12-07T23:36:58;101075.63;;;4.44;84.43
59104;BME280;51449;51.676;5.812;2022-12-07T23:39:23;101074.53;;;4.45;84.80
59104;BME280;51449;51.676;5.812;2022-12-07T23:41:58;101073.19;;;4.42;84.67
59104;BME280;51449;51.676;5.812;2022-12-07T23:44:20;101070.19;;;4.39;84.99
59104;BME280;51449;51.676;5.812;2022-12-07T23:46:42;101066.66;;;4.38;84.93
59104;BME280;51449;51.676;5.812;2022-12-07T23:49:05;101064.75;;;4.39;84.98
59104;BME280;51449;51.676;5.812;2022-12-07T23:51:27;101062.00;;;4.39;84.94
59104;BME280;51449;51.676;5.812;2022-12-07T23:53:52;101064.25;;;4.37;84.66
59104;BME280;51449;51.676;5.812;2022-12-07T23:56:30;101067.25;;;4.35;85.01
59104;BME280;51449;51.676;5.812;2022-12-07T23:59:10;101056.06;;;4.32;85.13
